Time;durP1;ratioP1;P1;durP2;ratioP2;P2;SDS_P1;SDS_P2;PMS_P1;PMS_P2;Temp;Humidity;BMP_temperature;BMP_pressure;BME280_temperature;BME280_humidity;BME280_pressure;Samples;Min_cycle;Max_cycle;Signal;HPM_P1;HPM_P2
2023/03/22 00:01:11;;;;;;;11.03;6.23;;;9.10;99.90;;;;;;5108980;28;20227;-83
2023/03/22 00:03:39;;;;;;;11.87;6.50;;;8.80;99.90;;;;;;5108157;28;20212;-83
2023/03/22 00:06:07;;;;;;;10.60;6.20;;;8.70;99.90;;;;;;5108320;28;20303;-83
2023/03/22 00:08:34;;;;;;;11.53;7.03;;;8.70;99.90;;;;;;5095001;28;20258;-83
2023/03/22 00:11:01;;;;;;;11.80;7.10;;;8.70;99.90;;;;;;5103407;28;20574;-82
2023/03/22 00:13:28;;;;;;;13.23;7.20;;;8.70;99.90;;;;;;5106506;28;20285;-83
2023/03/22 00:15:56;;;;;;;10.80;6.63;;;8.80;99.90;;;;;;5096846;28;20237;-83
2023/03/22 00:18:24;;;;;;;9.93;6.17;;;8.70;99.90;;;;;;5087180;28;20198;-83
2023/03/22 00:20:53;;;;;;;12.67;6.63;;;8.50;99.90;;;;;;5104437;28;20217;-83
2023/03/22 00:23:20;;;;;;;12.40;6.60;;;8.60;99.90;;;;;;5108136;28;20283;-85
2023/03/22 00:25:48;;;;;;;14.07;7.27;;;8.60;99.90;;;;;;5103305;28;20261;-83
2023/03/22 00:28:16;;;;;;;11.03;5.87;;;8.70;99.90;;;;;;5106692;28;20261;-84
2023/03/22 00:30:43;;;;;;;12.07;6.77;;;8.60;99.90;;;;;;5102561;28;20210;-84
2023/03/22 00:33:10;;;;;;;15.33;6.93;;;8.60;99.90;;;;;;5100019;28;20320;-85
2023/03/22 00:35:38;;;;;;;11.07;6.47;;;8.40;99.90;;;;;;5104107;28;20236;-84
2023/03/22 00:38:12;;;;;;;14.57;7.43;;;8.40;99.90;;;;;;5103181;28;20208;-85
2023/03/22 00:40:39;;;;;;;12.80;7.63;;;8.40;99.90;;;;;;5105605;28;20220;-84
2023/03/22 00:43:06;;;;;;;12.73;8.03;;;8.50;99.90;;;;;;5104147;28;20645;-83
2023/03/22 00:45:35;;;;;;;12.57;7.37;;;8.40;99.90;;;;;;5106659;28;20212;-84
2023/03/22 00:48:01;;;;;;;15.10;7.70;;;8.40;99.90;;;;;;5107090;28;20208;-83
2023/03/22 00:50:28;;;;;;;11.97;7.50;;;8.50;99.90;;;;;;5104900;28;20209;-83
2023/03/22 00:52:56;;;;;;;12.57;7.37;;;8.50;99.90;;;;;;5106311;28;20289;-84
2023/03/22 00:55:23;;;;;;;14.17;7.77;;;8.30;99.90;;;;;;5105099;28;20232;-83
2023/03/22 00:57:50;;;;;;;16.07;8.17;;;8.40;99.90;;;;;;5105937;28;20209;-83
2023/03/22 01:00:17;;;;;;;14.00;8.20;;;8.10;99.90;;;;;;5104334;28;20236;-84
2023/03/22 01:02:44;;;;;;;12.80;7.67;;;8.20;99.90;;;;;;5105446;28;20322;-85
2023/03/22 01:05:14;;;;;;;15.30;8.50;;;8.10;99.90;;;;;;5113590;28;20190;-84
2023/03/22 01:07:42;;;;;;;14.23;8.00;;;8.20;99.90;;;;;;5105678;28;20194;-83
2023/03/22 01:10:11;;;;;;;14.10;8.30;;;8.20;99.90;;;;;;5100234;28;20197;-86
2023/03/22 01:12:38;;;;;;;14.13;7.97;;;8.10;99.90;;;;;;5102894;28;20224;-84
2023/03/22 01:15:07;;;;;;;14.80;8.47;;;8.00;99.90;;;;;;5103906;28;20205;-86
2023/03/22 01:17:33;;;;;;;18.60;8.77;;;8.00;99.90;;;;;;5086782;28;20317;-83
2023/03/22 01:20:00;;;;;;;15.13;8.00;;;8.10;99.90;;;;;;5083675;28;20313;-84
2023/03/22 01:22:27;;;;;;;17.57;9.00;;;8.10;99.90;;;;;;5103520;28;20774;-85
2023/03/22 01:24:54;;;;;;;20.50;9.30;;;8.30;99.90;;;;;;5105122;28;20277;-84
2023/03/22 01:27:22;;;;;;;15.17;8.30;;;8.30;99.90;;;;;;5104458;28;20265;-84
2023/03/22 01:29:49;;;;;;;15.43;8.93;;;8.30;99.90;;;;;;5104140;28;20201;-83
2023/03/22 01:32:16;;;;;;;14.43;8.63;;;8.20;99.90;;;;;;5088214;28;20234;-84
2023/03/22 01:34:43;;;;;;;13.37;8.77;;;8.20;99.90;;;;;;5084491;28;20220;-83
2023/03/22 01:37:09;;;;;;;17.90;8.87;;;8.30;99.90;;;;;;5085034;28;20203;-83
2023/03/22 01:39:36;;;;;;;13.53;8.10;;;8.40;99.90;;;;;;5084463;28;20220;-85
2023/03/22 01:42:04;;;;;;;21.80;10.00;;;8.50;99.90;;;;;;5084940;28;20237;-84
2023/03/22 01:44:32;;;;;;;18.83;8.93;;;8.60;99.90;;;;;;5101341;28;20206;-86
2023/03/22 01:46:59;;;;;;;18.37;9.80;;;8.50;99.90;;;;;;5105784;28;20288;-83
2023/03/22 01:49:30;;;;;;;17.90;9.63;;;8.50;99.90;;;;;;5104664;28;20233;-83
2023/03/22 01:52:00;;;;;;;19.67;9.50;;;8.60;99.90;;;;;;5108627;28;20228;-85
2023/03/22 01:54:32;;;;;;;18.07;9.97;;;8.50;99.90;;;;;;5101445;28;20278;-84
2023/03/22 01:57:00;;;;;;;20.70;10.10;;;8.60;99.90;;;;;;5105748;28;20208;-85
2023/03/22 01:59:27;;;;;;;19.67;10.60;;;8.70;99.90;;;;;;5106107;28;20237;-83
2023/03/22 02:01:58;;;;;;;20.47;10.53;;;8.80;99.90;;;;;;5118762;28;20225;-83
2023/03/22 02:04:32;;;;;;;20.73;10.00;;;8.70;99.90;;;;;;5110308;28;20211;-85
2023/03/22 02:07:02;;;;;;;16.97;9.87;;;8.90;99.90;;;;;;5109766;28;20216;-86
2023/03/22 02:09:29;;;;;;;17.57;9.53;;;8.90;99.90;;;;;;5102304;28;20640;-84
2023/03/22 02:12:06;;;;;;;18.53;10.27;;;8.80;99.90;;;;;;5108880;28;20221;-85
2023/03/22 02:14:42;;;;;;;17.20;10.60;;;8.80;99.90;;;;;;5105983;28;20649;-83
2023/03/22 02:17:26;;;;;;;22.03;11.30;;;8.80;99.90;;;;;;5108254;28;20204;-84
2023/03/22 02:20:19;;;;;;;18.23;11.33;;;9.00;99.90;;;;;;5109258;28;20213;-83
2023/03/22 02:23:20;;;;;;;19.97;10.77;;;9.00;99.90;;;;;;5108853;28;20232;-84
2023/03/22 02:26:12;;;;;;;19.00;10.77;;;9.00;99.90;;;;;;5109931;28;20197;-83
2023/03/22 02:28:48;;;;;;;19.90;10.57;;;9.20;99.90;;;;;;5106732;28;20573;-84
2023/03/22 02:31:58;;;;;;;19.10;10.40;;;9.20;99.90;;;;;;5109136;28;20208;-84
2023/03/22 02:34:52;;;;;;;19.07;11.10;;;9.20;99.90;;;;;;5016676;28;20295;-84
2023/03/22 02:37:57;;;;;;;18.73;10.03;;;9.20;99.90;;;;;;5007330;28;20225;-85
2023/03/22 02:40:32;;;;;;;20.07;10.37;;;9.30;99.90;;;;;;5088273;28;20577;-84
2023/03/22 02:43:06;;;;;;;21.33;11.13;;;9.30;99.90;;;;;;5101129;28;20355;-84
2023/03/22 02:45:38;;;;;;;21.03;12.00;;;9.20;99.90;;;;;;5088251;28;20206;-83
2023/03/22 02:48:09;;;;;;;20.17;11.13;;;9.30;99.90;;;;;;5087761;28;20186;-84
2023/03/22 02:50:43;;;;;;;21.57;10.63;;;9.20;99.90;;;;;;5089822;28;20232;-85
2023/03/22 02:53:16;;;;;;;21.80;11.43;;;9.20;99.90;;;;;;5109129;28;20232;-83
2023/03/22 02:55:50;;;;;;;18.93;10.80;;;9.20;99.90;;;;;;5108883;28;20205;-84
2023/03/22 02:58:20;;;;;;;18.83;10.57;;;9.20;99.90;;;;;;5105405;28;20695;-85
2023/03/22 03:00:50;;;;;;;18.43;10.47;;;9.20;99.90;;;;;;5107489;28;20632;-83
2023/03/22 03:03:19;;;;;;;20.37;11.10;;;9.20;99.90;;;;;;5108406;28;20217;-83
2023/03/22 03:05:48;;;;;;;19.27;11.17;;;9.20;99.90;;;;;;5106383;28;20213;-85
2023/03/22 03:08:17;;;;;;;21.03;11.13;;;9.20;99.90;;;;;;5108694;28;20197;-86
2023/03/22 03:10:47;;;;;;;20.17;10.97;;;9.20;99.90;;;;;;5090025;28;20568;-83
2023/03/22 03:13:15;;;;;;;17.07;10.77;;;9.10;99.90;;;;;;5089462;28;20289;-84
2023/03/22 03:15:45;;;;;;;19.47;11.03;;;9.10;99.90;;;;;;5089119;28;20266;-84
2023/03/22 03:18:22;;;;;;;17.67;11.00;;;9.00;99.90;;;;;;5087666;28;20217;-85
2023/03/22 03:21:01;;;;;;;21.07;10.60;;;9.20;99.90;;;;;;5087791;28;20570;-83
2023/03/22 03:23:37;;;;;;;18.50;10.70;;;9.10;99.90;;;;;;5087604;28;20619;-83
2023/03/22 03:26:11;;;;;;;21.33;11.90;;;9.30;99.90;;;;;;5089127;28;20236;-84
2023/03/22 03:28:43;;;;;;;20.13;10.70;;;9.30;99.90;;;;;;5087218;28;20293;-85
2023/03/22 03:31:18;;;;;;;19.97;11.57;;;9.30;99.90;;;;;;5087179;28;20206;-85
2023/03/22 03:33:52;;;;;;;21.63;11.43;;;9.40;99.90;;;;;;5088546;28;20233;-86
2023/03/22 03:36:22;;;;;;;17.90;10.53;;;9.30;99.90;;;;;;5098768;28;20286;-84
2023/03/22 03:38:52;;;;;;;17.30;10.23;;;9.40;99.90;;;;;;5088021;28;20622;-85
2023/03/22 03:41:24;;;;;;;19.73;10.50;;;9.30;99.90;;;;;;5098718;28;20220;-85
2023/03/22 03:43:52;;;;;;;17.87;10.63;;;9.30;99.90;;;;;;5106869;28;20208;-85
2023/03/22 03:46:20;;;;;;;21.47;10.40;;;9.30;99.90;;;;;;5106643;28;20213;-84
2023/03/22 03:48:49;;;;;;;17.43;9.70;;;9.40;99.90;;;;;;5106387;28;20202;-85
2023/03/22 03:51:16;;;;;;;17.20;10.10;;;9.20;99.90;;;;;;5104886;28;20292;-83
2023/03/22 03:53:43;;;;;;;18.53;10.83;;;9.20;99.90;;;;;;5096602;28;20588;-85
2023/03/22 03:56:10;;;;;;;18.60;10.20;;;9.20;99.90;;;;;;5099938;28;20224;-83
2023/03/22 03:58:39;;;;;;;20.10;10.90;;;9.20;99.90;;;;;;5106837;28;20300;-83
2023/03/22 04:01:07;;;;;;;19.00;10.43;;;9.20;99.90;;;;;;5107975;28;20229;-83
2023/03/22 04:03:34;;;;;;;18.60;10.50;;;9.20;99.90;;;;;;5104769;28;20227;-83
2023/03/22 04:06:00;;;;;;;18.73;10.50;;;9.20;99.90;;;;;;5088352;28;20233;-83
2023/03/22 04:08:27;;;;;;;21.67;10.93;;;9.20;99.90;;;;;;5099063;28;20269;-83
2023/03/22 04:10:54;;;;;;;21.00;10.83;;;9.30;99.90;;;;;;5101560;28;20274;-85
2023/03/22 04:13:23;;;;;;;18.57;11.03;;;9.30;99.90;;;;;;5087882;28;20252;-83
2023/03/22 04:15:56;;;;;;;19.23;10.27;;;9.40;99.90;;;;;;5094607;28;20213;-83
2023/03/22 04:18:23;;;;;;;18.97;11.17;;;9.50;99.90;;;;;;5103135;28;20251;-84
2023/03/22 04:20:52;;;;;;;19.10;10.50;;;9.50;99.90;;;;;;5107565;28;20589;-82
2023/03/22 04:23:21;;;;;;;32.33;21.13;;;9.60;99.90;;;;;;5115770;28;20237;-85
2023/03/22 04:25:49;;;;;;;20.87;12.20;;;9.60;99.90;;;;;;5098982;28;20198;-82
2023/03/22 04:28:18;;;;;;;17.27;9.97;;;9.50;99.90;;;;;;5104702;28;20251;-84
2023/03/22 04:30:49;;;;;;;18.13;9.90;;;9.50;99.90;;;;;;5089214;28;20198;-82
2023/03/22 04:33:18;;;;;;;16.57;10.07;;;9.40;99.90;;;;;;5105342;28;20694;-82
2023/03/22 04:35:45;;;;;;;20.03;10.93;;;9.50;99.90;;;;;;5102484;28;20305;-82
2023/03/22 04:38:12;;;;;;;18.43;11.00;;;9.60;99.90;;;;;;5086428;28;20742;-84
2023/03/22 04:40:45;;;;;;;19.23;11.20;;;9.50;99.90;;;;;;5085525;28;20313;-84
2023/03/22 04:43:14;;;;;;;20.80;11.30;;;9.50;99.90;;;;;;5103562;28;20285;-83
2023/03/22 04:45:42;;;;;;;19.57;11.03;;;9.40;99.90;;;;;;5106415;28;20217;-84
2023/03/22 04:48:10;;;;;;;18.63;10.00;;;9.40;99.90;;;;;;5101804;28;20607;-83
2023/03/22 04:50:39;;;;;;;19.80;11.20;;;9.40;99.90;;;;;;5085427;28;20203;-83
2023/03/22 04:53:06;;;;;;;23.30;12.40;;;9.60;99.90;;;;;;5084401;28;20279;-82
2023/03/22 04:55:33;;;;;;;19.90;11.53;;;9.60;99.90;;;;;;5085430;28;20210;-82
2023/03/22 04:58:03;;;;;;;23.03;12.17;;;9.70;99.90;;;;;;5082912;28;20202;-81
2023/03/22 05:00:30;;;;;;;20.17;11.70;;;9.60;99.90;;;;;;5086072;28;20217;-82
2023/03/22 05:02:57;;;;;;;20.87;11.97;;;9.60;99.90;;;;;;5086349;28;20341;-82
2023/03/22 05:05:24;;;;;;;21.97;12.20;;;9.60;99.90;;;;;;5086529;28;20268;-84
2023/03/22 05:07:52;;;;;;;21.03;11.60;;;9.60;99.90;;;;;;5086107;28;20229;-82
2023/03/22 05:10:19;;;;;;;20.63;11.67;;;9.60;99.90;;;;;;5085713;28;20198;-83
2023/03/22 05:12:46;;;;;;;22.93;12.10;;;9.50;99.90;;;;;;5086326;28;20252;-83
2023/03/22 05:15:13;;;;;;;26.57;12.27;;;9.60;99.90;;;;;;5085615;28;20307;-82
2023/03/22 05:17:39;;;;;;;21.50;12.00;;;9.60;99.90;;;;;;5085220;28;20205;-83
2023/03/22 05:20:08;;;;;;;20.90;11.27;;;9.50;99.90;;;;;;5086431;28;20632;-83
2023/03/22 05:22:39;;;;;;;20.40;11.60;;;9.50;99.90;;;;;;5085967;28;20240;-82
2023/03/22 05:25:09;;;;;;;20.03;11.87;;;9.30;99.90;;;;;;5086468;28;20567;-82
2023/03/22 05:27:37;;;;;;;22.63;12.03;;;9.50;99.90;;;;;;5086154;28;20216;-82
2023/03/22 05:30:06;;;;;;;21.33;12.70;;;9.30;99.90;;;;;;5085805;28;20202;-82
2023/03/22 05:32:33;;;;;;;20.90;11.87;;;9.50;99.90;;;;;;5086310;28;20665;-83
2023/03/22 05:35:03;;;;;;;21.97;12.00;;;9.50;99.90;;;;;;5086435;28;20274;-83
2023/03/22 05:37:31;;;;;;;22.27;12.10;;;9.50;99.90;;;;;;5086691;28;20213;-84
2023/03/22 05:39:58;;;;;;;23.40;11.90;;;9.50;99.90;;;;;;5085987;28;20210;-82
2023/03/22 05:42:26;;;;;;;20.03;11.30;;;9.50;99.90;;;;;;5086144;28;20626;-81
2023/03/22 05:44:53;;;;;;;20.97;11.47;;;9.40;99.90;;;;;;5086790;28;20285;-84
2023/03/22 05:47:21;;;;;;;23.40;12.07;;;9.60;99.90;;;;;;5087775;28;20556;-83
2023/03/22 05:49:47;;;;;;;20.53;11.73;;;9.60;99.90;;;;;;5085808;28;20220;-83
2023/03/22 05:52:14;;;;;;;20.33;10.03;;;9.80;99.90;;;;;;5087277;28;20233;-83
2023/03/22 05:54:41;;;;;;;20.60;11.33;;;9.80;99.90;;;;;;5086733;28;20206;-83
2023/03/22 05:57:08;;;;;;;19.73;10.30;;;9.80;99.90;;;;;;5087162;28;20214;-85
2023/03/22 05:59:36;;;;;;;19.50;10.97;;;9.90;99.90;;;;;;5086370;28;20213;-82
2023/03/22 06:02:03;;;;;;;18.83;10.77;;;9.90;99.90;;;;;;5086108;28;20230;-83
2023/03/22 06:04:30;;;;;;;19.03;11.00;;;10.00;99.90;;;;;;5087521;28;20293;-81
2023/03/22 06:06:56;;;;;;;18.23;10.83;;;10.00;99.90;;;;;;5086506;28;20251;-83
2023/03/22 06:09:23;;;;;;;20.23;11.47;;;10.10;99.90;;;;;;5086024;28;20289;-84
2023/03/22 06:11:50;;;;;;;20.30;11.57;;;10.10;99.90;;;;;;5086061;28;20291;-82
2023/03/22 06:14:17;;;;;;;21.20;11.53;;;10.10;99.90;;;;;;5085757;28;20236;-84
2023/03/22 06:16:45;;;;;;;19.10;10.83;;;10.10;99.90;;;;;;5085936;28;20228;-83
2023/03/22 06:19:12;;;;;;;19.57;11.43;;;10.20;99.90;;;;;;5086013;28;20204;-82
2023/03/22 06:21:38;;;;;;;19.90;11.23;;;10.10;99.90;;;;;;5086952;28;20228;-82
2023/03/22 06:24:05;;;;;;;22.77;11.97;;;10.10;99.90;;;;;;5086865;28;20202;-82
2023/03/22 06:26:32;;;;;;;19.20;11.60;;;10.20;99.90;;;;;;5086940;28;20573;-81
2023/03/22 06:29:02;;;;;;;18.80;10.93;;;10.30;99.90;;;;;;5085425;28;20281;-81
2023/03/22 06:31:28;;;;;;;21.03;11.37;;;10.20;99.90;;;;;;5090635;28;20227;-81
2023/03/22 06:33:57;;;;;;;20.63;11.00;;;10.30;99.90;;;;;;5105288;28;20281;-82
2023/03/22 06:36:23;;;;;;;19.73;11.20;;;10.30;99.90;;;;;;5112881;28;20223;-82
2023/03/22 06:38:50;;;;;;;20.27;10.93;;;10.30;99.90;;;;;;5108945;28;20587;-83
2023/03/22 06:41:17;;;;;;;20.90;11.77;;;10.30;99.90;;;;;;5119404;28;20256;-83
2023/03/22 06:43:44;;;;;;;20.43;11.37;;;10.40;99.90;;;;;;5114389;28;20193;-83
2023/03/22 06:46:10;;;;;;;19.07;11.10;;;10.40;99.90;;;;;;5109688;28;20718;-83
2023/03/22 06:48:37;;;;;;;18.50;10.97;;;10.40;99.90;;;;;;5103727;28;20576;-83
2023/03/22 06:51:06;;;;;;;18.80;10.30;;;10.50;99.90;;;;;;5108765;28;20190;-82
2023/03/22 06:53:33;;;;;;;19.10;10.87;;;10.50;99.90;;;;;;5110317;28;20312;-84
2023/03/22 06:56:00;;;;;;;20.93;10.93;;;10.50;99.90;;;;;;5112127;28;20663;-82
2023/03/22 06:58:26;;;;;;;19.53;11.57;;;10.50;99.90;;;;;;5103196;28;20274;-82
2023/03/22 07:00:56;;;;;;;19.43;10.93;;;10.70;99.90;;;;;;5089729;28;20293;-84
2023/03/22 07:03:22;;;;;;;18.50;10.37;;;10.80;99.90;;;;;;5089313;28;20236;-83
2023/03/22 07:05:49;;;;;;;20.07;10.50;;;10.80;99.90;;;;;;5089713;28;20225;-82
2023/03/22 07:08:17;;;;;;;18.90;10.90;;;10.90;99.90;;;;;;5090473;28;20210;-83
2023/03/22 07:10:50;;;;;;;19.73;10.20;;;11.00;99.90;;;;;;5089743;28;20645;-83
2023/03/22 07:13:16;;;;;;;19.37;10.93;;;11.10;99.90;;;;;;5091355;28;20222;-84
2023/03/22 07:15:43;;;;;;;16.77;9.60;;;11.20;99.90;;;;;;5089370;28;20271;-83
2023/03/22 07:18:10;;;;;;;18.43;10.07;;;11.40;99.90;;;;;;5090339;28;20266;-84
2023/03/22 07:20:39;;;;;;;16.80;9.90;;;11.50;99.90;;;;;;5089802;28;20658;-85
2023/03/22 07:23:06;;;;;;;18.60;10.60;;;11.60;99.90;;;;;;5090981;28;20253;-83
2023/03/22 07:25:34;;;;;;;18.00;10.00;;;11.60;99.90;;;;;;5089857;28;20198;-84
2023/03/22 07:28:01;;;;;;;17.43;10.07;;;11.50;99.90;;;;;;5089522;28;20210;-84
2023/03/22 07:30:28;;;;;;;17.17;10.00;;;11.40;99.90;;;;;;5090012;28;20210;-84
2023/03/22 07:32:55;;;;;;;19.70;10.30;;;11.50;99.90;;;;;;5118777;28;20237;-83
2023/03/22 07:35:21;;;;;;;17.83;9.40;;;11.60;99.90;;;;;;5111009;28;20218;-84
2023/03/22 07:37:48;;;;;;;15.20;9.20;;;11.60;99.90;;;;;;5110838;28;20732;-84
2023/03/22 07:40:15;;;;;;;20.33;10.33;;;12.00;99.90;;;;;;5110593;28;20254;-83
2023/03/22 07:42:43;;;;;;;15.63;8.83;;;12.90;99.90;;;;;;5108336;28;20238;-85
2023/03/22 07:45:11;;;;;;;13.57;9.10;;;13.70;99.90;;;;;;5091334;28;20225;-85
2023/03/22 07:47:37;;;;;;;15.57;8.93;;;14.10;99.90;;;;;;5088348;28;20198;-81
2023/03/22 07:50:05;;;;;;;15.40;8.40;;;14.00;99.90;;;;;;5089169;28;20652;-83
2023/03/22 07:52:32;;;;;;;15.07;9.33;;;13.40;99.90;;;;;;5089665;28;20222;-83
2023/03/22 07:54:59;;;;;;;15.47;7.97;;;13.40;99.90;;;;;;5088284;28;20207;-84
2023/03/22 07:57:25;;;;;;;16.20;8.90;;;13.50;99.90;;;;;;5105311;28;20293;-83
2023/03/22 07:59:54;;;;;;;14.13;8.73;;;13.30;99.90;;;;;;5108516;28;20264;-83
2023/03/22 08:02:20;;;;;;;13.43;8.77;;;12.90;99.90;;;;;;5107989;28;20225;-83
2023/03/22 08:04:49;;;;;;;13.00;8.17;;;13.10;99.90;;;;;;5106644;28;20246;-84
2023/03/22 08:07:17;;;;;;;14.97;8.43;;;13.00;99.90;;;;;;5098038;28;20229;-83
2023/03/22 08:09:44;;;;;;;14.33;8.20;;;13.20;99.90;;;;;;5108036;28;20269;-85
2023/03/22 08:12:11;;;;;;;14.13;7.97;;;13.20;99.90;;;;;;5090027;28;20229;-83
2023/03/22 08:14:38;;;;;;;14.70;7.97;;;13.50;99.90;;;;;;5104059;28;20209;-83
2023/03/22 08:17:06;;;;;;;15.07;8.17;;;13.50;99.90;;;;;;5107834;28;20197;-84
2023/03/22 08:19:34;;;;;;;14.57;8.80;;;13.40;99.90;;;;;;5106048;28;20277;-83
2023/03/22 08:22:02;;;;;;;13.87;8.47;;;13.40;99.90;;;;;;5106847;28;20620;-82
2023/03/22 08:24:29;;;;;;;16.23;8.20;;;13.30;99.90;;;;;;5107189;28;20288;-82
2023/03/22 08:26:56;;;;;;;12.33;7.20;;;13.10;99.90;;;;;;5106719;28;20263;-83
2023/03/22 08:29:23;;;;;;;11.67;7.83;;;12.90;99.90;;;;;;5106543;28;20218;-82
2023/03/22 08:31:50;;;;;;;14.57;7.57;;;13.00;99.90;;;;;;5107569;28;20240;-82
2023/03/22 08:34:18;;;;;;;13.13;8.10;;;13.10;99.90;;;;;;5107990;28;20239;-83
2023/03/22 08:36:45;;;;;;;19.17;7.73;;;13.10;99.90;;;;;;5106275;28;20665;-83
2023/03/22 08:39:12;;;;;;;14.33;8.13;;;13.00;99.90;;;;;;5107994;28;20265;-82
2023/03/22 08:41:39;;;;;;;13.73;8.07;;;13.10;99.90;;;;;;5106728;28;20292;-83
2023/03/22 08:44:06;;;;;;;13.57;8.43;;;13.10;99.90;;;;;;5111238;28;20223;-83
2023/03/22 08:46:33;;;;;;;12.07;7.37;;;13.10;99.90;;;;;;5112472;28;20212;-84
2023/03/22 08:49:01;;;;;;;11.87;7.67;;;13.10;99.90;;;;;;5106511;28;20201;-81
2023/03/22 08:51:30;;;;;;;14.13;8.00;;;13.20;99.90;;;;;;5101797;28;20301;-83
2023/03/22 08:53:59;;;;;;;13.67;8.07;;;13.20;99.90;;;;;;5087956;28;20214;-82
2023/03/22 08:56:27;;;;;;;12.40;7.33;;;13.20;99.90;;;;;;5086434;28;20209;-84
2023/03/22 08:58:54;;;;;;;14.67;7.23;;;13.20;99.90;;;;;;5088286;28;20236;-82
2023/03/22 09:01:21;;;;;;;13.53;7.50;;;13.20;99.90;;;;;;5102049;28;20202;-82
2023/03/22 09:03:47;;;;;;;11.23;6.30;;;13.20;99.90;;;;;;5106734;28;20237;-82
2023/03/22 09:06:15;;;;;;;11.00;6.80;;;13.20;99.90;;;;;;5107225;28;20201;-82
2023/03/22 09:08:43;;;;;;;8.67;6.33;;;13.30;99.90;;;;;;5113391;28;20205;-83
2023/03/22 09:11:10;;;;;;;9.20;5.93;;;13.20;99.90;;;;;;5107657;28;20293;-83
2023/03/22 09:13:37;;;;;;;10.13;6.43;;;13.30;99.90;;;;;;5099478;28;20210;-84
2023/03/22 09:16:05;;;;;;;11.47;6.70;;;13.20;99.90;;;;;;5106674;28;20285;-83
2023/03/22 09:18:32;;;;;;;10.10;6.07;;;13.30;99.90;;;;;;5107251;28;20213;-81
2023/03/22 09:20:59;;;;;;;11.40;5.50;;;13.40;99.90;;;;;;5104810;28;20265;-82
2023/03/22 09:23:25;;;;;;;9.70;5.73;;;13.50;99.90;;;;;;5085754;28;20230;-82
2023/03/22 09:25:54;;;;;;;10.43;5.70;;;13.60;99.90;;;;;;5085311;28;20217;-81
2023/03/22 09:28:20;;;;;;;10.23;5.83;;;13.60;99.90;;;;;;5084463;28;20233;-82
2023/03/22 09:30:48;;;;;;;10.17;5.10;;;13.70;99.90;;;;;;5084982;28;20233;-83
2023/03/22 09:33:15;;;;;;;9.53;4.90;;;13.80;99.90;;;;;;5097316;28;20210;-83
2023/03/22 09:35:42;;;;;;;10.03;5.27;;;13.90;99.90;;;;;;5100542;28;20229;-82
2023/03/22 09:38:09;;;;;;;8.90;4.87;;;14.00;99.90;;;;;;5104790;28;20205;-81
2023/03/22 09:40:39;;;;;;;10.23;5.20;;;14.20;99.90;;;;;;5091896;28;20206;-82
2023/03/22 09:43:09;;;;;;;8.97;4.83;;;14.10;99.90;;;;;;5083825;28;20230;-82
2023/03/22 09:45:40;;;;;;;7.73;4.40;;;14.20;99.90;;;;;;5083268;28;20202;-82
2023/03/22 09:48:14;;;;;;;7.77;4.77;;;14.20;99.90;;;;;;5084518;28;20232;-83
2023/03/22 09:50:47;;;;;;;8.17;4.47;;;14.30;99.90;;;;;;5085811;28;20204;-82
2023/03/22 09:53:16;;;;;;;6.77;4.10;;;14.30;99.90;;;;;;5084293;28;20226;-84
2023/03/22 09:55:49;;;;;;;8.33;4.03;;;14.10;99.90;;;;;;5085386;28;20278;-82
2023/03/22 09:58:24;;;;;;;9.03;4.30;;;14.10;99.90;;;;;;5103308;28;20224;-83
2023/03/22 10:00:55;;;;;;;6.07;3.93;;;14.10;99.90;;;;;;5117632;28;20225;-82
2023/03/22 10:03:41;;;;;;;7.03;4.40;;;14.40;99.90;;;;;;5122303;28;20220;-83
2023/03/22 10:06:12;;;;;;;4.30;3.40;;;14.60;99.90;;;;;;5102579;28;20199;-82
2023/03/22 10:08:54;;;;;;;6.37;3.50;;;14.50;99.90;;;;;;5117007;28;20197;-82
2023/03/22 10:11:29;;;;;;;6.93;3.50;;;14.30;99.90;;;;;;5116791;28;20236;-85
2023/03/22 10:14:02;;;;;;;6.22;3.50;;;14.40;99.90;;;;;;5100733;28;20221;-82
2023/03/22 10:16:32;;;;;;;6.53;3.40;;;14.50;99.90;;;;;;5089436;28;20206;-83
2023/03/22 10:19:07;;;;;;;6.63;3.40;;;14.70;99.90;;;;;;5088821;28;20189;-82
2023/03/22 10:21:36;;;;;;;5.50;3.27;;;14.80;99.90;;;;;;5089915;28;20214;-83
2023/03/22 10:24:07;;;;;;;6.25;3.28;;;14.60;99.90;;;;;;5103153;28;20241;-84
2023/03/22 10:26:38;;;;;;;8.25;3.33;;;14.90;99.90;;;;;;5109840;28;20217;-83
2023/03/22 10:29:13;;;;;;;8.30;3.92;;;14.90;99.90;;;;;;5094924;28;20290;-82
2023/03/22 10:31:43;;;;;;;6.30;3.83;;;15.00;99.90;;;;;;5098341;28;20244;-85
2023/03/22 10:34:18;;;;;;;7.10;3.42;;;15.20;99.90;;;;;;5109988;28;20282;-83
2023/03/22 10:36:48;;;;;;;5.40;3.42;;;15.20;99.90;;;;;;5108869;28;20669;-83
2023/03/22 10:39:27;;;;;;;6.90;3.50;;;15.30;99.90;;;;;;5106037;28;20661;-82
2023/03/22 10:41:54;;;;;;;4.88;3.03;;;15.30;99.90;;;;;;5106956;28;20229;-83
2023/03/22 10:44:26;;;;;;;5.03;2.90;;;15.40;99.90;;;;;;5108698;28;20284;-83
2023/03/22 10:46:55;;;;;;;5.38;3.45;;;15.10;99.90;;;;;;5106902;28;20216;-81
2023/03/22 10:49:27;;;;;;;4.00;2.97;;;15.10;99.90;;;;;;5108324;28;20225;-81
2023/03/22 10:52:00;;;;;;;6.27;3.60;;;15.10;99.90;;;;;;5088475;28;20230;-81
2023/03/22 10:54:27;;;;;;;4.43;3.10;;;15.00;99.90;;;;;;5087892;28;20239;-82
2023/03/22 10:56:54;;;;;;;4.57;3.60;;;15.10;99.90;;;;;;5088265;28;20212;-81
2023/03/22 10:59:48;;;;;;;4.30;3.00;;;15.20;99.90;;;;;;5102739;28;20209;-82
2023/03/22 11:02:20;;;;;;;4.68;3.38;;;15.10;99.90;;;;;;5093496;28;20254;-84
2023/03/22 11:04:48;;;;;;;5.47;2.88;;;15.20;99.90;;;;;;5088042;28;20222;-83
2023/03/22 11:07:28;;;;;;;6.57;3.40;;;15.20;99.90;;;;;;5087130;28;20661;-83
2023/03/22 11:10:20;;;;;;;7.05;2.90;;;15.40;99.90;;;;;;5087262;28;20277;-81
2023/03/22 11:12:50;;;;;;;6.18;2.95;;;15.70;99.90;;;;;;5079143;28;20361;-83
2023/03/22 11:15:25;;;;;;;8.02;3.42;;;16.00;99.90;;;;;;5087340;28;20285;-82
2023/03/22 11:17:54;;;;;;;5.40;2.70;;;15.50;99.90;;;;;;5087712;28;20245;-82
2023/03/22 11:20:21;;;;;;;4.35;3.20;;;15.40;99.90;;;;;;5087718;28;20567;-80
2023/03/22 11:22:48;;;;;;;6.00;3.25;;;15.80;99.90;;;;;;5087466;28;20226;-82
2023/03/22 11:25:20;;;;;;;5.30;3.17;;;15.60;99.90;;;;;;5086479;28;20209;-82
2023/03/22 11:27:52;;;;;;;6.45;2.75;;;15.40;99.90;;;;;;5087075;28;20206;-82
2023/03/22 11:30:22;;;;;;;5.40;3.00;;;15.60;99.90;;;;;;5086947;28;20749;-80
2023/03/22 11:32:59;;;;;;;5.75;3.28;;;15.50;99.90;;;;;;5086587;28;20279;-81
2023/03/22 11:35:26;;;;;;;4.85;2.72;;;15.70;99.90;;;;;;5087304;28;20647;-83
2023/03/22 11:37:54;;;;;;;4.78;3.00;;;15.80;99.90;;;;;;5086754;28;20650;-82
2023/03/22 11:40:24;;;;;;;7.80;2.85;;;16.00;99.90;;;;;;5087895;28;20617;-83
2023/03/22 11:42:55;;;;;;;4.88;2.75;;;16.10;99.90;;;;;;5087735;28;20226;-81
2023/03/22 11:45:27;;;;;;;4.68;2.65;;;16.20;99.90;;;;;;5087335;28;20266;-82
2023/03/22 11:47:55;;;;;;;4.75;3.15;;;16.00;99.90;;;;;;5087607;28;20206;-84
2023/03/22 11:50:28;;;;;;;3.65;2.58;;;16.10;99.90;;;;;;5087975;28;20693;-83
2023/03/22 11:52:55;;;;;;;4.05;2.90;;;16.00;99.90;;;;;;5086247;28;20317;-81
2023/03/22 11:55:24;;;;;;;3.75;2.80;;;16.00;99.90;;;;;;5085079;28;20639;-80
2023/03/22 11:57:50;;;;;;;4.88;2.88;;;16.00;99.90;;;;;;5084674;28;20226;-81
2023/03/22 12:00:21;;;;;;;6.00;3.42;;;16.20;99.90;;;;;;5083487;28;20236;-81
2023/03/22 12:02:53;;;;;;;5.90;3.10;;;16.00;99.90;;;;;;5083504;28;20230;-83
2023/03/22 12:05:23;;;;;;;4.75;2.70;;;16.00;99.90;;;;;;5082695;28;20199;-80
2023/03/22 12:07:55;;;;;;;5.20;2.80;;;16.30;99.90;;;;;;5086898;28;20278;-81
2023/03/22 12:10:26;;;;;;;3.15;2.42;;;16.20;99.90;;;;;;5088411;28;20187;-82
2023/03/22 12:12:58;;;;;;;4.80;2.95;;;16.60;99.90;;;;;;5088232;28;20218;-82
2023/03/22 12:15:29;;;;;;;4.32;2.58;;;16.70;99.90;;;;;;5086491;28;20232;-81
2023/03/22 12:18:02;;;;;;;6.30;3.35;;;16.70;99.90;;;;;;5088078;28;20226;-82
2023/03/22 12:20:40;;;;;;;3.35;2.70;;;16.70;99.90;;;;;;5087601;28;20610;-80
2023/03/22 12:23:15;;;;;;;3.40;2.33;;;16.70;99.90;;;;;;5085816;28;20678;-81
2023/03/22 12:25:46;;;;;;;4.57;2.92;;;16.40;99.90;;;;;;5084620;28;20734;-82
2023/03/22 12:28:17;;;;;;;3.78;2.78;;;16.50;99.90;;;;;;5095354;28;20202;-82
2023/03/22 12:30:46;;;;;;;2.92;2.70;;;16.40;99.90;;;;;;5097255;28;20198;-81
2023/03/22 12:33:20;;;;;;;4.82;2.63;;;16.10;99.90;;;;;;5086098;28;20278;-81
2023/03/22 12:35:48;;;;;;;3.95;3.08;;;16.00;99.90;;;;;;5086821;28;20262;-81
2023/03/22 12:38:26;;;;;;;4.03;3.00;;;16.10;99.90;;;;;;5087647;28;20670;-82
2023/03/22 12:40:55;;;;;;;5.68;2.70;;;16.30;99.90;;;;;;5088169;28;20269;-82
2023/03/22 12:43:34;;;;;;;4.00;2.60;;;16.10;99.90;;;;;;5090459;28;20225;-83
2023/03/22 12:46:04;;;;;;;4.28;2.70;;;16.00;99.90;;;;;;5117932;28;20708;-82
2023/03/22 12:48:38;;;;;;;5.30;2.70;;;16.00;99.90;;;;;;5099035;28;20233;-84
2023/03/22 12:51:07;;;;;;;4.55;2.80;;;15.90;99.90;;;;;;5099508;28;20201;-83
2023/03/22 12:53:41;;;;;;;5.22;2.65;;;15.80;99.90;;;;;;5099245;28;20301;-82